Time;durP1;ratioP1;P1;durP2;ratioP2;P2;SDS_P1;SDS_P2;PMS_P1;PMS_P2;Temp;Humidity;BMP_temperature;BMP_pressure;BME280_temperature;BME280_humidity;BME280_pressure;Samples;Min_cycle;Max_cycle;Signal;HPM_P1;HPM_P2
2022/04/19 00:02:02;;;;;;;6.53;1.95;;;;;;;10.19;57.38;100199.47;5047690;28;20053;-43
2022/04/19 00:04:30;;;;;;;9.75;2.30;;;;;;;10.16;57.06;100204.63;5044599;28;20091;-43
2022/04/19 00:06:56;;;;;;;4.68;2.05;;;;;;;10.14;57.47;100206.38;5042693;28;20061;-44
2022/04/19 00:09:23;;;;;;;4.25;1.70;;;;;;;10.14;57.63;100201.19;5046038;28;20084;-39
2022/04/19 00:11:50;;;;;;;3.90;1.75;;;;;;;10.12;57.64;100201.19;5044922;28;20379;-40
2022/04/19 00:14:16;;;;;;;4.55;1.63;;;;;;;10.11;57.62;100201.19;5043934;28;20049;-42
2022/04/19 00:16:43;;;;;;;4.60;1.48;;;;;;;10.11;57.09;100206.38;5040223;28;20505;-41
2022/04/19 00:19:10;;;;;;;4.40;2.08;;;;;;;10.10;57.46;100199.47;5044772;28;21364;-40
2022/04/19 00:21:36;;;;;;;5.20;2.15;;;;;;;10.10;57.84;100199.47;5040735;28;20455;-43
2022/04/19 00:24:21;;;;;;;6.72;1.90;;;;;;;10.08;57.59;100196.00;5044299;28;20095;-45
2022/04/19 00:26:47;;;;;;;8.63;2.28;;;;;;;10.07;57.93;100195.16;5045133;28;20056;-44
2022/04/19 00:29:14;;;;;;;6.53;2.05;;;;;;;10.06;58.15;100187.38;5043396;28;20053;-43
2022/04/19 00:31:40;;;;;;;3.55;1.48;;;;;;;10.03;58.54;100194.28;5043601;28;20059;-45
2022/04/19 00:34:07;;;;;;;5.57;2.60;;;;;;;10.02;58.60;100189.09;5041325;28;20049;-40
2022/04/19 00:36:33;;;;;;;4.45;2.25;;;;;;;10.00;58.20;100191.66;5041245;28;20102;-39
2022/04/19 00:39:00;;;;;;;4.18;1.83;;;;;;;10.00;58.71;100188.25;5042415;28;20090;-40
2022/04/19 00:41:27;;;;;;;4.18;1.45;;;;;;;9.97;58.45;100188.22;5047287;28;20106;-44
2022/04/19 00:43:54;;;;;;;3.75;1.90;;;;;;;9.95;58.20;100193.41;5037545;28;20041;-43
2022/04/19 00:46:21;;;;;;;6.90;1.80;;;;;;;9.93;59.07;100192.50;5041642;28;21862;-41
2022/04/19 00:48:48;;;;;;;7.80;2.25;;;;;;;9.91;58.91;100183.91;5041808;28;20049;-41
2022/04/19 00:51:17;;;;;;;7.82;2.00;;;;;;;9.88;59.36;100186.47;5041591;28;20041;-40
2022/04/19 00:53:43;;;;;;;7.28;2.03;;;;;;;9.85;59.85;100189.03;5039835;28;20118;-41
2022/04/19 00:56:10;;;;;;;3.88;1.75;;;;;;;9.82;59.34;100183.84;5042478;28;20056;-43
2022/04/19 00:58:37;;;;;;;5.22;1.65;;;;;;;9.80;59.92;100185.59;5043029;28;20056;-41
2022/04/19 01:01:04;;;;;;;4.50;1.70;;;;;;;9.78;59.94;100170.06;5045388;28;20614;-43
2022/04/19 01:03:31;;;;;;;4.53;2.40;;;;;;;9.76;59.43;100180.41;5045861;28;20049;-40
2022/04/19 01:05:59;;;;;;;4.75;2.40;;;;;;;9.76;59.74;100179.53;5046553;28;20103;-42
2022/04/19 01:08:27;;;;;;;4.05;2.20;;;;;;;9.75;59.69;100175.22;5042146;28;20075;-42
2022/04/19 01:13:17;;;;;;;4.25;1.95;;;;;;;9.73;60.20;100175.22;5027399;28;20476;-41
2022/04/19 01:13:41;;;;;;;4.85;1.70;;;;;;;9.71;60.54;100184.72;5022962;28;20091;-42
2022/04/19 01:16:08;;;;;;;6.97;1.80;;;;;;;9.70;60.13;100180.41;5018802;28;20045;-40
2022/04/19 01:18:35;;;;;;;5.35;1.63;;;;;;;9.68;59.96;100179.53;5023510;28;20053;-46
2022/04/19 01:21:04;;;;;;;4.50;2.28;;;;;;;9.67;60.00;100175.22;5040240;28;20053;-41
2022/04/19 01:23:30;;;;;;;4.75;1.67;;;;;;;9.67;60.19;100184.69;5038631;28;20053;-40
2022/04/19 01:25:58;;;;;;;3.33;1.20;;;;;;;9.68;59.87;100178.66;5039113;28;20045;-42
2022/04/19 01:28:25;;;;;;;2.92;1.27;;;;;;;9.66;59.92;100178.63;5038781;28;20411;-44
2022/04/19 01:30:54;;;;;;;4.40;1.70;;;;;;;9.67;60.59;100179.50;5040993;28;20044;-40
2022/04/19 01:33:21;;;;;;;5.22;1.58;;;;;;;9.66;60.44;100181.22;5044272;28;20091;-42
2022/04/19 01:35:49;;;;;;;4.55;2.28;;;;;;;9.66;59.79;100183.81;5035552;28;20516;-43
2022/04/19 01:38:15;;;;;;;4.63;1.42;;;;;;;9.63;60.01;100189.00;5021624;28;20053;-45
2022/04/19 01:40:42;;;;;;;4.53;1.88;;;;;;;9.62;60.17;100176.91;5041716;28;20060;-43
2022/04/19 01:43:09;;;;;;;3.80;1.20;;;;;;;9.61;60.28;100175.19;5039719;28;20049;-40
2022/04/19 01:45:35;;;;;;;3.53;1.85;;;;;;;9.59;60.42;100184.69;5038932;28;20060;-39
2022/04/19 01:48:03;;;;;;;4.53;1.40;;;;;;;9.56;60.18;100185.50;5037692;28;20479;-39
2022/04/19 01:50:30;;;;;;;4.10;1.58;;;;;;;9.55;60.25;100180.34;5037565;28;20060;-40
2022/04/19 01:53:00;;;;;;;3.28;1.75;;;;;;;9.53;60.02;100188.09;5039700;28;20049;-43
2022/04/19 01:55:27;;;;;;;4.18;1.95;;;;;;;9.52;59.98;100186.34;5024427;28;20135;-46
2022/04/19 01:57:57;;;;;;;3.70;1.75;;;;;;;9.51;60.86;100180.34;5043910;28;20041;-41
2022/04/19 02:00:26;;;;;;;4.25;1.20;;;;;;;9.51;60.35;100179.47;5020609;28;20045;-41
2022/04/19 02:02:55;;;;;;;4.55;1.65;;;;;;;9.48;60.27;100185.50;5037730;28;20574;-41
2022/04/19 02:05:22;;;;;;;3.75;1.77;;;;;;;9.46;60.71;100176.84;5038269;28;20047;-44
2022/04/19 02:07:49;;;;;;;4.53;1.83;;;;;;;9.44;60.15;100177.72;5036973;28;20653;-43
2022/04/19 02:10:18;;;;;;;4.03;1.60;;;;;;;9.41;60.68;100173.41;5020134;28;20111;-47
2022/04/19 02:12:45;;;;;;;3.10;1.17;;;;;;;9.42;60.05;100180.28;5039075;28;20358;-41
2022/04/19 02:15:14;;;;;;;4.10;1.77;;;;;;;9.38;60.75;100173.38;5043511;28;20049;-43
2022/04/19 02:17:44;;;;;;;6.07;2.55;;;;;;;9.37;60.46;100174.25;5041119;28;20072;-43
2022/04/19 02:20:13;;;;;;;5.15;1.92;;;;;;;9.37;60.65;100176.81;5043472;28;20485;-39
2022/04/19 02:22:40;;;;;;;5.43;2.58;;;;;;;9.35;60.76;100181.13;5045051;28;20048;-43
2022/04/19 02:25:09;;;;;;;6.40;2.15;;;;;;;9.34;60.80;100171.63;5047982;28;20439;-40
2022/04/19 02:27:35;;;;;;;5.20;2.03;;;;;;;9.33;60.53;100177.69;5045276;28;20072;-44
2022/04/19 02:30:04;;;;;;;4.22;1.75;;;;;;;9.32;60.65;100175.94;5053376;28;20520;-40
2022/04/19 02:32:33;;;;;;;4.30;2.60;;;;;;;9.30;61.08;100181.13;5043969;28;20110;-45
2022/04/19 02:35:00;;;;;;;5.28;2.13;;;;;;;9.30;60.71;100173.34;5025140;28;20056;-42
2022/04/19 02:37:28;;;;;;;4.45;2.47;;;;;;;9.30;60.80;100180.25;5024832;28;20250;-40
2022/04/19 02:39:55;;;;;;;5.30;2.47;;;;;;;9.30;60.84;100170.78;5045392;28;20049;-45
2022/04/19 02:42:22;;;;;;;4.80;2.10;;;;;;;9.26;60.41;100172.47;5046985;28;20059;-42
2022/04/19 02:44:49;;;;;;;6.10;2.95;;;;;;;9.25;61.01;100175.91;5046825;28;20084;-45
2022/04/19 02:47:17;;;;;;;4.72;2.22;;;;;;;9.25;60.05;100170.75;5048744;28;20492;-42
2022/04/19 02:49:47;;;;;;;6.40;2.28;;;;;;;9.24;60.37;100170.72;5050371;28;20048;-43
2022/04/19 02:52:13;;;;;;;4.57;2.13;;;;;;;9.22;60.73;100173.31;5044306;28;20554;-44
2022/04/19 02:54:40;;;;;;;6.70;2.45;;;;;;;9.20;61.26;100175.03;5042347;28;20103;-46
2022/04/19 02:57:08;;;;;;;6.30;2.97;;;;;;;9.17;61.57;100177.59;5045168;28;20468;-42
2022/04/19 02:59:35;;;;;;;6.22;2.85;;;;;;;9.16;61.68;100168.13;5045192;28;20041;-43
2022/04/19 03:02:02;;;;;;;7.63;2.55;;;;;;;9.14;60.65;100169.81;5042085;28;20049;-43
2022/04/19 03:04:29;;;;;;;6.97;2.42;;;;;;;9.14;60.64;100169.81;5044331;28;20049;-41
2022/04/19 03:06:55;;;;;;;5.75;3.17;;;;;;;9.14;61.56;100164.66;5038645;28;20134;-38
2022/04/19 03:09:22;;;;;;;5.95;2.92;;;;;;;9.13;61.45;100170.69;5038420;28;20048;-41
2022/04/19 03:11:49;;;;;;;6.68;2.53;;;;;;;9.11;61.43;100174.97;5043875;28;20076;-42
2022/04/19 03:14:16;;;;;;;6.72;2.22;;;;;;;9.09;60.97;100176.69;5044834;28;20455;-44
2022/04/19 03:16:43;;;;;;;8.23;3.08;;;;;;;9.11;60.95;100174.97;5043780;28;20057;-43
2022/04/19 03:19:13;;;;;;;7.35;3.53;;;;;;;9.07;61.15;100178.41;5042143;28;20094;-40
2022/04/19 03:21:41;;;;;;;6.30;3.22;;;;;;;9.06;60.87;100179.25;5051016;28;20049;-42
2022/04/19 03:29:41;;;;;;;5.82;2.92;;;;;;;8.95;61.35;100174.88;5042591;28;20393;-43
2022/04/19 03:32:09;;;;;;;8.77;2.40;;;;;;;8.94;62.42;100183.50;5042523;28;20454;-40
2022/04/19 03:34:36;;;;;;;7.05;3.03;;;;;;;8.90;61.67;100181.75;5044407;28;20498;-43
2022/04/19 03:37:03;;;;;;;7.45;3.17;;;;;;;8.89;61.68;100179.16;5045158;28;20036;-40
2022/04/19 03:39:29;;;;;;;6.78;3.50;;;;;;;8.84;61.54;100176.53;5042326;28;20045;-45
2022/04/19 03:41:57;;;;;;;6.93;3.58;;;;;;;8.81;62.14;100179.13;5054345;28;20106;-41
2022/04/19 03:44:25;;;;;;;10.73;4.28;;;;;;;8.77;61.72;100174.75;5043839;28;20079;-41
2022/04/19 03:47:08;;;;;;;8.25;3.55;;;;;;;8.72;62.48;100178.19;5042926;28;20646;-40
2022/04/19 03:49:37;;;;;;;9.57;3.80;;;;;;;8.70;61.88;100179.91;5044033;28;20049;-42
2022/04/19 03:52:05;;;;;;;10.15;3.10;;;;;;;8.67;62.37;100179.88;5045507;28;20056;-43
2022/04/19 03:54:34;;;;;;;7.65;2.90;;;;;;;8.64;62.11;100179.84;5049132;28;20102;-45
2022/04/19 03:57:06;;;;;;;9.25;3.17;;;;;;;8.62;61.49;100176.41;5046606;28;20063;-47
2022/04/19 03:59:38;;;;;;;7.47;3.03;;;;;;;8.59;62.27;100184.13;5029837;28;20079;-39
2022/04/19 04:02:06;;;;;;;8.13;2.85;;;;;;;8.53;61.79;100186.63;5026306;28;20048;-44
2022/04/19 04:04:35;;;;;;;6.80;3.03;;;;;;;8.46;62.07;100181.41;5032813;28;20454;-43
2022/04/19 04:07:04;;;;;;;7.80;3.58;;;;;;;8.44;61.92;100177.09;5040892;28;20048;-41
2022/04/19 04:09:32;;;;;;;7.30;3.20;;;;;;;8.41;62.72;100182.22;5027719;28;20056;-43
2022/04/19 04:12:02;;;;;;;10.23;3.47;;;;;;;8.38;62.42;100183.06;5043253;28;20102;-41
2022/04/19 04:14:29;;;;;;;7.80;3.08;;;;;;;8.37;62.44;100181.31;5040024;28;20585;-40
2022/04/19 04:16:56;;;;;;;8.57;2.85;;;;;;;8.35;62.78;100181.31;5043440;28;20044;-41
2022/04/19 04:19:23;;;;;;;6.78;2.97;;;;;;;8.36;62.53;100184.75;5040483;28;20053;-41
2022/04/19 04:21:50;;;;;;;8.98;3.42;;;;;;;8.36;62.01;100184.75;5042461;28;20048;-45
2022/04/19 04:24:16;;;;;;;7.07;2.95;;;;;;;8.34;63.00;100181.28;5020030;28;20049;-42
2022/04/19 04:26:43;;;;;;;7.18;3.13;;;;;;;8.31;62.26;100186.44;5044964;28;20053;-46
2022/04/19 04:29:09;;;;;;;8.52;3.63;;;;;;;8.27;62.54;100182.13;5040798;28;20114;-41
2022/04/19 04:31:36;;;;;;;8.43;3.35;;;;;;;8.23;62.63;100184.66;5044015;28;20106;-42
2022/04/19 04:34:03;;;;;;;13.40;4.63;;;;;;;8.19;63.24;100177.75;5042374;28;20127;-43
2022/04/19 04:36:29;;;;;;;11.63;3.67;;;;;;;8.16;63.26;100180.28;5043614;28;20485;-43
2022/04/19 04:38:56;;;;;;;11.70;4.05;;;;;;;8.13;62.11;100182.84;5040494;28;20138;-45
2022/04/19 04:41:23;;;;;;;9.30;3.60;;;;;;;8.10;62.80;100187.97;5047616;28;20554;-48
2022/04/19 04:43:49;;;;;;;8.95;3.67;;;;;;;8.09;62.77;100186.25;5044224;28;20487;-43
2022/04/19 04:51:49;;;;;;;9.05;3.97;;;;;;;7.96;63.12;100191.28;5027734;28;20053;-43
2022/04/19 04:54:16;;;;;;;10.27;4.60;;;;;;;7.96;62.98;100193.88;5043391;28;20045;-40
2022/04/19 04:56:42;;;;;;;9.45;4.10;;;;;;;7.94;62.54;100194.69;5042434;28;20049;-41
2022/04/19 04:59:09;;;;;;;8.32;3.90;;;;;;;7.91;62.60;100198.09;5040178;28;20463;-42
2022/04/19 05:01:38;;;;;;;9.35;3.85;;;;;;;7.90;62.24;100196.38;5042856;28;20138;-42
2022/04/19 05:04:05;;;;;;;10.60;3.88;;;;;;;7.86;63.89;100199.75;5042231;28;20052;-39
2022/04/19 05:06:31;;;;;;;10.30;4.25;;;;;;;7.84;63.58;100201.47;5057082;28;20053;-41
2022/04/19 05:08:58;;;;;;;9.60;3.55;;;;;;;7.85;63.80;100210.94;5045133;28;20049;-41
2022/04/19 05:11:24;;;;;;;8.43;3.63;;;;;;;7.84;63.88;100206.63;5042550;28;20110;-42
2022/04/19 05:13:51;;;;;;;7.25;3.83;;;;;;;7.83;63.92;100212.63;5043046;28;20041;-41
2022/04/19 05:16:18;;;;;;;11.30;4.63;;;;;;;7.82;62.57;100219.50;5058231;28;20053;-39
2022/04/19 05:18:45;;;;;;;8.95;4.07;;;;;;;7.83;62.86;100220.34;5049895;28;20053;-41
2022/04/19 05:21:11;;;;;;;8.27;3.10;;;;;;;7.83;62.95;100217.78;5041614;28;20377;-44
2022/04/19 05:23:38;;;;;;;10.23;3.97;;;;;;;7.84;63.44;100220.38;5059778;28;20057;-44
2022/04/19 05:26:04;;;;;;;11.20;4.10;;;;;;;7.85;63.83;100221.25;5040794;28;20106;-43
2022/04/19 05:28:31;;;;;;;9.77;4.35;;;;;;;7.85;63.98;100218.66;5046693;28;20110;-42
2022/04/19 05:30:58;;;;;;;10.05;4.22;;;;;;;7.83;63.22;100215.19;5045460;28;20049;-42
2022/04/19 05:33:25;;;;;;;9.57;3.28;;;;;;;7.82;64.59;100218.63;5040881;28;20045;-41
2022/04/19 05:35:51;;;;;;;10.95;3.83;;;;;;;7.80;63.61;100220.34;5039768;28;20045;-41
2022/04/19 05:38:18;;;;;;;12.77;4.05;;;;;;;7.81;63.72;100227.22;5043766;28;20083;-41
2022/04/19 05:40:45;;;;;;;11.05;4.32;;;;;;;7.82;65.23;100229.81;5042495;28;20099;-41
2022/04/19 05:43:11;;;;;;;12.63;3.88;;;;;;;7.90;64.55;100235.06;5042531;28;20096;-41
2022/04/19 05:45:39;;;;;;;9.90;3.53;;;;;;;7.93;65.26;100229.94;5042379;28;20095;-43
2022/04/19 05:48:07;;;;;;;10.60;4.43;;;;;;;8.01;65.37;100229.16;5039660;28;20060;-41
2022/04/19 05:50:33;;;;;;;10.40;4.00;;;;;;;8.04;64.66;100224.88;5049903;28;20049;-41
2022/04/19 05:53:00;;;;;;;9.93;4.50;;;;;;;8.08;64.20;100225.78;5040348;28;20049;-45
2022/04/19 05:55:26;;;;;;;9.13;4.15;;;;;;;8.15;65.42;100227.59;5047485;28;20102;-39
2022/04/19 05:57:53;;;;;;;8.85;4.22;;;;;;;8.17;65.77;100232.78;5044742;28;20134;-41
2022/04/19 06:00:20;;;;;;;11.00;3.72;;;;;;;8.22;64.32;100237.13;5045747;28;20053;-39
2022/04/19 06:05:34;;;;;;;9.50;4.22;;;;;;;8.26;64.95;100240.59;5038051;28;20052;-42
2022/04/19 06:08:00;;;;;;;12.27;3.97;;;;;;;8.26;64.65;100239.72;5045942;28;20048;-41
2022/04/19 06:10:27;;;;;;;11.60;4.38;;;;;;;8.27;65.10;100241.47;5046539;28;20485;-44
2022/04/19 06:12:54;;;;;;;13.88;3.88;;;;;;;8.28;64.61;100244.03;5028007;28;20045;-43
2022/04/19 06:15:21;;;;;;;8.65;3.92;;;;;;;8.27;65.84;100246.63;5051945;28;20044;-41
2022/04/19 06:17:47;;;;;;;11.35;4.85;;;;;;;8.30;64.96;100246.63;5047044;28;20064;-41
2022/04/19 06:20:15;;;;;;;9.10;3.78;;;;;;;8.32;65.59;100247.53;5046932;28;20111;-43
2022/04/19 06:22:42;;;;;;;10.13;3.72;;;;;;;8.34;65.74;100243.22;5045773;28;20078;-43
2022/04/19 06:25:08;;;;;;;12.15;5.00;;;;;;;8.35;65.48;100248.41;5048226;28;20041;-42
2022/04/19 06:27:35;;;;;;;12.27;5.10;;;;;;;8.39;65.83;100251.91;5043428;28;20106;-41
2022/04/19 06:30:04;;;;;;;9.55;4.28;;;;;;;8.40;65.87;100253.63;5048550;28;20045;-41
2022/04/19 06:32:31;;;;;;;14.15;4.90;;;;;;;8.44;64.53;100255.38;5044333;28;20057;-40
2022/04/19 06:34:57;;;;;;;9.55;4.28;;;;;;;8.46;65.32;100257.97;5045846;28;20045;-44
2022/04/19 06:37:24;;;;;;;11.10;4.63;;;;;;;8.47;65.60;100255.41;5045926;28;20049;-42
2022/04/19 06:39:50;;;;;;;12.73;4.85;;;;;;;8.49;64.66;100269.19;5046929;28;20095;-40
2022/04/19 06:42:17;;;;;;;11.77;4.75;;;;;;;8.48;65.64;100272.63;5043702;28;20528;-41
2022/04/19 06:44:44;;;;;;;11.18;4.10;;;;;;;8.47;66.15;100270.91;5043886;28;20454;-45
2022/04/19 06:47:11;;;;;;;13.35;5.15;;;;;;;8.47;65.49;100268.31;5046687;28;20053;-44
2022/04/19 06:49:38;;;;;;;10.98;4.60;;;;;;;8.49;64.64;100274.34;5044969;28;20101;-42
2022/04/19 06:52:06;;;;;;;9.70;4.43;;;;;;;8.51;65.98;100271.78;5046547;28;20045;-40
2022/04/19 06:54:33;;;;;;;11.77;4.78;;;;;;;8.53;66.34;100269.22;5050760;28;20480;-42
2022/04/19 06:57:00;;;;;;;9.75;4.50;;;;;;;8.55;65.03;100272.72;5040445;28;20094;-45
2022/04/19 06:59:27;;;;;;;11.55;5.30;;;;;;;8.58;65.61;100277.94;5050497;28;20122;-40
2022/04/19 07:01:53;;;;;;;11.45;5.38;;;;;;;8.57;66.26;100276.19;5051441;28;20447;-41
2022/04/19 07:04:20;;;;;;;17.23;6.88;;;;;;;8.60;66.38;100281.38;5051328;28;20037;-40
2022/04/19 07:06:47;;;;;;;10.43;4.53;;;;;;;8.61;66.59;100278.81;5058783;28;20480;-41
2022/04/19 07:09:13;;;;;;;14.25;5.32;;;;;;;8.64;66.57;100277.13;5054628;28;20040;-45
2022/04/19 07:11:40;;;;;;;15.02;6.05;;;;;;;8.66;66.84;100276.28;5056745;28;20055;-42
2022/04/19 07:14:07;;;;;;;17.45;4.60;;;;;;;8.70;66.77;100282.31;5049679;28;20092;-46
2022/04/19 07:16:33;;;;;;;14.13;4.95;;;;;;;8.74;66.27;100279.78;5056211;28;20354;-43
2022/04/19 07:19:00;;;;;;;11.32;4.53;;;;;;;8.79;66.80;100276.38;5054957;28;20103;-40
2022/04/19 07:27:21;;;;;;;10.73;3.60;;;;;;;8.89;66.34;100283.34;5040317;28;20894;-42
2022/04/19 07:29:48;;;;;;;8.48;3.72;;;;;;;8.90;66.48;100284.19;5031991;28;20045;-41
2022/04/19 07:32:15;;;;;;;12.07;4.25;;;;;;;8.93;65.83;100285.09;5054490;28;20534;-40
2022/04/19 07:34:41;;;;;;;13.27;3.88;;;;;;;8.98;65.62;100291.16;5053546;28;20577;-41
2022/04/19 07:37:08;;;;;;;11.55;3.85;;;;;;;8.98;66.09;100288.59;5053425;28;20045;-48
2022/04/19 07:39:35;;;;;;;13.75;5.55;;;;;;;9.04;66.15;100292.06;5054453;28;20044;-41
2022/04/19 07:42:01;;;;;;;10.82;4.03;;;;;;;9.07;65.76;100289.50;5054288;28;20377;-44
2022/04/19 07:44:29;;;;;;;9.25;4.93;;;;;;;9.09;65.68;100295.56;5051753;28;20053;-43
2022/04/19 07:46:56;;;;;;;11.60;4.72;;;;;;;9.13;65.92;100286.97;5053433;28;20056;-47
2022/04/19 07:49:23;;;;;;;9.95;4.68;;;;;;;9.16;64.99;100292.16;5049838;28;20053;-41
2022/04/19 07:51:50;;;;;;;7.35;3.42;;;;;;;9.20;65.14;100293.91;5056883;28;20044;-40
2022/04/19 07:54:17;;;;;;;11.23;3.58;;;;;;;9.23;64.38;100299.09;5055980;28;20523;-40
2022/04/19 07:56:43;;;;;;;10.18;2.63;;;;;;;9.30;64.84;100302.59;5050228;28;20527;-42
2022/04/19 07:59:10;;;;;;;7.20;2.33;;;;;;;9.31;64.38;100301.75;5053477;28;20098;-41
2022/04/19 08:01:38;;;;;;;8.60;2.67;;;;;;;9.36;63.83;100299.19;5051460;28;20053;-45
2022/04/19 08:04:06;;;;;;;6.55;2.60;;;;;;;9.37;63.78;100296.63;5053946;28;20131;-48
2022/04/19 08:06:33;;;;;;;11.63;3.10;;;;;;;9.44;63.82;100301.81;5048700;28;20055;-42
2022/04/19 08:08:59;;;;;;;6.88;2.55;;;;;;;9.47;63.30;100299.25;5048504;28;20481;-46
2022/04/19 08:11:27;;;;;;;7.18;2.67;;;;;;;9.52;62.61;100305.28;5053708;28;20051;-43
2022/04/19 08:14:13;;;;;;;8.40;2.25;;;;;;;9.58;62.71;100304.47;5057209;28;20534;-42
2022/04/19 08:16:40;;;;;;;5.85;2.47;;;;;;;9.63;62.76;100307.97;5052214;28;20507;-45
2022/04/19 08:19:07;;;;;;;5.60;2.50;;;;;;;9.69;62.14;100305.38;5046997;28;20053;-41
2022/04/19 08:21:34;;;;;;;5.35;2.53;;;;;;;9.75;63.04;100302.84;5042187;28;20040;-47
2022/04/19 08:24:01;;;;;;;5.38;2.28;;;;;;;9.82;62.11;100314.09;5043371;28;20060;-43
2022/04/19 08:26:28;;;;;;;8.10;2.45;;;;;;;9.88;62.27;100313.25;5043519;28;20052;-44
2022/04/19 08:28:54;;;;;;;8.38;2.67;;;;;;;9.91;61.83;100313.25;5047149;28;20048;-41
2022/04/19 08:31:21;;;;;;;4.93;2.38;;;;;;;9.97;61.95;100302.91;5044216;28;20068;-41
2022/04/19 08:33:48;;;;;;;6.10;2.22;;;;;;;9.99;61.57;100308.97;5045208;28;20163;-41
2022/04/19 08:36:15;;;;;;;5.03;1.85;;;;;;;9.99;61.63;100306.41;5039771;28;20044;-44
2022/04/19 08:38:42;;;;;;;5.13;2.65;;;;;;;10.06;61.72;100304.69;5040687;28;20045;-42
2022/04/19 08:41:09;;;;;;;6.18;2.55;;;;;;;10.10;61.65;100309.00;5038411;28;20053;-42
2022/04/19 08:43:38;;;;;;;5.30;2.60;;;;;;;10.13;61.79;100310.75;5041806;28;20045;-42
2022/04/19 08:46:06;;;;;;;8.25;2.03;;;;;;;10.21;61.10;100310.78;5045288;28;20087;-40
2022/04/19 08:48:35;;;;;;;5.68;2.20;;;;;;;10.26;61.20;100322.00;5050201;28;20056;-42
2022/04/19 08:51:02;;;;;;;5.95;2.85;;;;;;;10.35;61.08;100308.22;5050416;28;20049;-41
2022/04/19 08:59:04;;;;;;;3.35;1.27;;;;;;;10.64;60.58;100300.53;5021805;28;20052;-43
2022/04/19 09:01:31;;;;;;;5.40;2.22;;;;;;;10.74;60.29;100306.59;5044765;28;20095;-43
2022/04/19 09:03:57;;;;;;;4.70;1.50;;;;;;;10.89;59.97;100299.69;5048673;28;20520;-42
2022/04/19 09:06:49;;;;;;;4.07;1.52;;;;;;;10.96;60.02;100301.41;5049462;28;20400;-43
2022/04/19 09:09:22;;;;;;;3.45;1.10;;;;;;;11.16;59.23;100303.13;5027777;28;20049;-43
2022/04/19 09:11:50;;;;;;;3.75;1.48;;;;;;;11.32;58.89;100306.56;5058093;28;20048;-41
2022/04/19 09:14:17;;;;;;;5.47;1.52;;;;;;;11.47;59.04;100300.47;5026845;28;20402;-42
2022/04/19 09:16:45;;;;;;;4.18;1.85;;;;;;;11.69;58.29;100297.84;5053051;28;20056;-41
2022/04/19 09:19:28;;;;;;;4.22;1.55;;;;;;;11.77;56.93;100300.38;5038885;28;20053;-45
2022/04/19 09:21:55;;;;;;;3.67;1.25;;;;;;;11.90;57.37;100296.03;5029140;28;20049;-41
2022/04/19 09:24:23;;;;;;;3.17;1.33;;;;;;;11.98;56.04;100294.25;5025159;28;20056;-43
2022/04/19 09:26:50;;;;;;;3.83;1.40;;;;;;;12.08;55.24;100295.97;5027280;28;20072;-45
2022/04/19 09:29:22;;;;;;;7.80;1.33;;;;;;;12.41;55.86;100297.50;5040931;28;20048;-41
2022/04/19 09:31:51;;;;;;;6.22;1.48;;;;;;;12.69;55.37;100308.59;5041889;28;20045;-41
2022/04/19 09:34:34;;;;;;;5.50;1.70;;;;;;;12.95;54.82;100304.06;5046099;28;20052;-43
2022/04/19 09:37:18;;;;;;;3.25;1.48;;;;;;;13.13;54.42;100302.19;5046209;28;20117;-41
2022/04/19 09:39:45;;;;;;;3.17;1.40;;;;;;;13.35;54.48;100308.88;5049588;28;20053;-42
2022/04/19 09:42:13;;;;;;;3.53;1.13;;;;;;;13.75;54.67;100311.97;5051754;28;20056;-41
2022/04/19 09:44:42;;;;;;;5.13;1.58;;;;;;;14.21;53.96;100304.44;5045530;28;20081;-42
2022/04/19 09:57:38;;;;;;;3.72;1.30;;;;;;;15.87;47.41;100303.41;5084751;27;20128;-43
2022/04/19 10:00:08;;;;;;;6.53;1.27;;;;;;;15.79;47.24;100300.09;5071396;28;20052;-43
2022/04/19 10:08:11;;;;;;;3.45;1.52;;;;;;;16.35;46.92;100296.28;5051800;28;20102;-45
2022/04/19 10:10:38;;;;;;;4.57;1.63;;;;;;;16.65;46.47;100298.25;5051947;28;20049;-44
2022/04/19 10:13:05;;;;;;;4.93;1.50;;;;;;;16.89;46.12;100296.78;5062189;28;20076;-42
2022/04/19 10:15:34;;;;;;;4.63;1.77;;;;;;;17.13;45.96;100301.47;5063692;28;20126;-47
2022/04/19 10:18:04;;;;;;;4.05;1.20;;;;;;;17.37;44.34;100299.94;5056211;28;20144;-46
2022/04/19 10:20:32;;;;;;;3.88;1.75;;;;;;;17.69;43.96;100300.81;5040170;28;20465;-43
2022/04/19 10:23:08;;;;;;;5.00;1.85;;;;;;;18.01;43.78;100295.53;5040967;28;21052;-45
2022/04/19 10:25:43;;;;;;;2.85;1.38;;;;;;;18.22;44.40;100301.94;5055019;28;20551;-43
2022/04/19 10:28:11;;;;;;;6.13;1.30;;;;;;;18.42;43.06;100295.22;5049482;28;20053;-47
2022/04/19 10:30:39;;;;;;;4.30;1.85;;;;;;;18.55;42.82;100302.69;5030825;28;20056;-41
2022/04/19 10:33:42;;;;;;;4.20;2.10;;;;;;;18.67;42.08;100294.41;5051513;28;20744;-43
2022/04/19 10:36:14;;;;;;;3.42;1.48;;;;;;;18.88;43.13;100297.25;5036565;28;20072;-45
2022/04/19 10:38:42;;;;;;;6.13;2.08;;;;;;;18.89;41.65;100296.34;5050326;28;20048;-43
2022/04/19 10:41:08;;;;;;;6.43;2.40;;;;;;;18.93;42.09;100295.31;5035269;28;20052;-43
2022/04/19 10:43:35;;;;;;;3.95;2.00;;;;;;;19.02;41.20;100295.00;5052480;28;20448;-48
2022/04/19 10:46:19;;;;;;;4.50;1.20;;;;;;;19.13;40.56;100297.31;5061212;28;20045;-45
2022/04/19 10:52:00;;;;;;;5.32;2.03;;;;;;;19.18;40.51;100299.75;5066163;27;20130;-43
2022/04/19 10:55:07;;;;;;;3.10;1.42;;;;;;;19.11;39.56;100304.34;5078093;28;20056;-46
2022/04/19 11:02:56;;;;;;;4.00;2.63;;;;;;;19.19;38.92;100301.47;5080384;27;20129;-44
2022/04/19 11:05:44;;;;;;;4.85;2.67;;;;;;;19.09;39.45;100300.06;5057709;28;20052;-44
2022/04/19 11:16:13;;;;;;;3.60;2.58;;;;;;;19.30;40.10;100302.84;5035869;27;20146;-47
2022/04/19 11:21:15;;;;;;;4.90;1.85;;;;;;;18.97;38.97;100310.06;5070419;27;20134;-43
2022/04/19 11:34:20;;;;;;;5.55;2.70;;;;;;;18.93;39.49;100297.94;5095858;27;20128;-48
2022/04/19 11:36:47;;;;;;;7.85;2.08;;;;;;;18.78;39.47;100295.84;5078836;27;20105;-46
2022/04/19 11:46:44;;;;;;;5.38;2.03;;;;;;;18.53;39.80;100302.72;5079003;28;20056;-45
2022/04/19 11:47:47;;;;;;;5.38;2.67;;;;;;;18.11;41.08;100306.66;5054969;27;20138;-49
2022/04/19 11:50:31;;;;;;;6.15;3.20;;;;;;;18.10;39.34;100304.91;5017947;28;20081;-43
2022/04/19 11:53:03;;;;;;;4.25;2.45;;;;;;;18.21;40.35;100308.06;5017870;28;20049;-44
2022/04/19 11:55:29;;;;;;;5.15;2.25;;;;;;;18.22;40.51;100299.31;5019562;28;20104;-47
2022/04/19 12:00:39;;;;;;;3.78;1.33;;;;;;;18.13;40.90;100310.06;5064413;27;20134;-45
2022/04/19 12:03:24;;;;;;;6.20;1.30;;;;;;;18.07;40.29;100300.59;5072859;28;20087;-45
2022/04/19 12:05:53;;;;;;;6.43;2.47;;;;;;;18.07;40.94;100302.38;5076125;28;20129;-43
2022/04/19 12:08:38;;;;;;;3.47;1.38;;;;;;;18.12;40.10;100310.97;5076959;28;20052;-46
2022/04/19 12:11:07;;;;;;;7.88;1.50;;;;;;;18.24;40.97;100307.97;5073945;28;20061;-43
2022/04/19 12:13:35;;;;;;;3.88;1.33;;;;;;;18.31;40.70;100302.56;5057639;28;20060;-43
2022/04/19 12:16:04;;;;;;;5.18;1.50;;;;;;;18.38;40.25;100298.84;5055554;28;20102;-45
2022/04/19 12:18:33;;;;;;;3.33;1.10;;;;;;;18.47;40.93;100295.03;5059999;28;20067;-48
2022/04/19 12:21:00;;;;;;;4.78;1.80;;;;;;;18.47;40.07;100308.16;5053185;28;20049;-46
2022/04/19 12:23:27;;;;;;;5.88;1.45;;;;;;;18.44;40.65;100309.13;5059201;28;20145;-52
2022/04/19 12:26:10;;;;;;;5.25;1.42;;;;;;;18.36;38.91;100316.38;5053599;28;20057;-44
2022/04/19 12:28:42;;;;;;;4.63;2.13;;;;;;;18.37;40.21;100315.44;5056802;28;20052;-44
2022/04/19 12:31:31;;;;;;;6.50;1.42;;;;;;;18.52;39.39;100313.25;5055585;28;20044;-48
2022/04/19 12:33:58;;;;;;;6.13;1.92;;;;;;;18.66;40.24;100313.69;5055548;28;20045;-46
2022/04/19 12:36:26;;;;;;;2.80;1.10;;;;;;;18.73;39.60;100314.34;5053514;28;20079;-43
2022/04/19 12:39:03;;;;;;;6.80;1.95;;;;;;;18.74;38.22;100316.91;5056176;28;20052;-47
2022/04/19 12:41:46;;;;;;;4.65;1.85;;;;;;;18.88;38.02;100315.63;5057119;28;20052;-43
2022/04/19 12:44:16;;;;;;;4.82;1.40;;;;;;;18.97;39.61;100317.06;5059360;28;20048;-43
2022/04/19 12:46:48;;;;;;;5.35;2.78;;;;;;;18.96;38.23;100315.34;5055333;28;20734;-44
2022/04/19 12:54:32;;;;;;;5.82;3.17;;;;;;;19.12;38.80;100315.72;5061632;27;20137;-45
2022/04/19 12:57:01;;;;;;;5.40;1.80;;;;;;;19.09;39.29;100307.94;5040490;28;20779;-46
2022/04/19 12:59:30;;;;;;;5.90;1.52;;;;;;;19.13;38.15;100310.44;5033159;28;20442;-43
2022/04/19 13:01:58;;;;;;;5.30;3.25;;;;;;;18.99;37.90;100315.25;5055619;28;20060;-41